Terminal Aerodrome Forecast
Issued by NWS

Home | Current Version | Previous Version | Text Only | Print | Product List | Glossary On
Versions: 1 2 3 4 5 6 7 8 9 10 11 12 13 14 15 16 17 18 19 20
000
FTUS46 KLOX 010500
TAFSBP
TAF
KSBP 010538Z 0106/0206 32006KT P6SM SKC
     FM011200 VRB03KT 5SM BR BKN004
     FM011600 VRB03KT P6SM SKC
     FM011900 30012KT P6SM SKC
     FM020400 VRB03KT P6SM SCT007=

USA.gov is the U.S. government's official web portal to all federal, state and local government web resources and services.